New Jersey Trader — 9HA4050 — position and weather

sailwx.info

Track history (hours):
 
Tides and Currents Weather Stations Pressure Air Temp Water Temp Dewpoint Dewpoint Depression Visibility Wind Speed Wind Dir Waves Ship Positions

New Jersey Trader

Last reported at 2017-Sep-21 03:44 UTC. Time now 2017-Sep-23 07:43 UTC.
Position N 32°04' E 033°59'.

Length 212 m; draft 9.5 m.

Type: Ship. MMSI: 256976000.

Date/timePositionNaut miles runAvg speedWind from/ knotsBaromVisibWave heightAir tempDewpointWater temp
2017-Sep-21 03:44N 32°04' E 033°59'210.0
2017-Sep-21 03:29N 32°05' E 033°57'4 9.0
2017-Sep-21 03:00N 32°09' E 033°54'2410.5
2017-Sep-21 00:45N 32°32' E 034°01'410.4
2017-Sep-21 00:19N 32°36' E 034°02'410.5
2017-Sep-20 23:59N 32°39' E 034°03'510.5
2017-Sep-20 23:30N 32°44' E 034°04'510.4
2017-Sep-20 22:59N 32°49' E 034°06'710.2
2017-Sep-20 22:16N 32°56' E 034°08'410.0
2017-Sep-20 21:55N 32°60' E 034°09'510.0
2017-Sep-20 21:25N 33°05' E 034°11'5 9.7
2017-Sep-20 20:55N 33°09' E 034°12'4 9.5
2017-Sep-20 20:30N 33°13' E 034°13'5 9.6
2017-Sep-20 19:59N 33°18' E 034°15'  
2017-Sep-17 15:07N 37°22' E 025°55'112.2
2017-Sep-17 15:01N 37°23' E 025°54'612.0
2017-Sep-17 14:30N 37°29' E 025°51'612.2
2017-Sep-17 14:00N 37°35' E 025°49'612.2
2017-Sep-17 13:31N 37°41' E 025°49'54 1.1
2017-Sep-15 12:21N 38°04' E 024°47'23 9.0
2017-Sep-15 09:50N 37°49' E 024°26'7 9.9
2017-Sep-15 09:05N 37°44' E 024°19'110.1
2017-Sep-15 08:59N 37°43' E 024°18'912.0
2017-Sep-15 08:14N 37°37' E 024°10'612.0
2017-Sep-15 07:47N 37°36' E 024°03'3 9.8
2017-Sep-15 07:30N 37°36' E 023°60'5 9.6
2017-Sep-15 07:01N 37°36' E 023°54'5 9.3
2017-Sep-15 06:31N 37°36' E 023°48'5 9.0
2017-Sep-15 06:00N 37°39' E 023°43'5 9.7
2017-Sep-15 05:30N 37°43' E 023°40'510.7
2017-Sep-15 05:01N 37°48' E 023°38'510.3
2017-Sep-15 04:30N 37°53' E 023°37'4 8.1
2017-Sep-15 04:00N 37°57' E 023°36'1 1.4
2017-Sep-15 03:28N 37°57' E 023°35'0 0.0
2017-Sep-15 02:58N 37°57' E 023°35'0 0.0
2017-Sep-15 02:28N 37°57' E 023°35'0 0.0
2017-Sep-15 01:58N 37°57' E 023°35'0 0.0
2017-Sep-15 01:28N 37°57' E 023°35'0 0.0
2017-Sep-15 00:58N 37°57' E 023°35'0 0.0
2017-Sep-15 00:28N 37°57' E 023°35'0 0.0
2017-Sep-14 23:58N 37°57' E 023°35'0 0.0
2017-Sep-14 23:28N 37°57' E 023°35'0 0.0
2017-Sep-14 22:58N 37°57' E 023°35'0 0.0
2017-Sep-14 22:28N 37°57' E 023°35'0 0.0
2017-Sep-14 21:58N 37°57' E 023°35'0 0.0
2017-Sep-14 21:28N 37°57' E 023°35'0 0.0
2017-Sep-14 20:58N 37°57' E 023°35'0 0.0
2017-Sep-14 20:28N 37°57' E 023°35'0 0.0
2017-Sep-14 19:58N 37°57' E 023°35'0 0.0
2017-Sep-14 19:28N 37°57' E 023°35'0 0.0
2017-Sep-14 18:58N 37°57' E 023°35'0 0.0
2017-Sep-14 18:28N 37°57' E 023°35'0 0.0
2017-Sep-14 17:58N 37°57' E 023°35'0 0.0
2017-Sep-14 17:28N 37°57' E 023°35'0 0.0
2017-Sep-14 16:58N 37°57' E 023°35'0 0.0
2017-Sep-14 16:28N 37°57' E 023°35'0 0.0
2017-Sep-14 15:58N 37°57' E 023°35'0 0.0
2017-Sep-14 15:28N 37°57' E 023°35'0 0.0
2017-Sep-14 14:58N 37°57' E 023°35'0 0.0
2017-Sep-14 14:28N 37°57' E 023°35'0 0.0
2017-Sep-14 13:58N 37°57' E 023°35'0 0.0
2017-Sep-14 13:28N 37°57' E 023°35'0 0.0
2017-Sep-14 12:58N 37°57' E 023°35'0 0.0
2017-Sep-14 12:28N 37°57' E 023°35'0 0.0
2017-Sep-14 11:58N 37°57' E 023°35'0 0.0
2017-Sep-14 11:28N 37°57' E 023°35'0 0.0
2017-Sep-14 10:58N 37°57' E 023°35'0 0.0
2017-Sep-14 10:28N 37°57' E 023°35'0 0.0
2017-Sep-14 09:58N 37°57' E 023°35'0 0.0
2017-Sep-14 09:28N 37°57' E 023°35'0 0.0
2017-Sep-14 08:58N 37°57' E 023°35'0 0.0
2017-Sep-14 08:28N 37°57' E 023°35'0 0.0
2017-Sep-14 07:52N 37°57' E 023°35'0 0.0
2017-Sep-14 07:28N 37°57' E 023°35'0 0.0
2017-Sep-14 06:58N 37°57' E 023°35'0 0.0
2017-Sep-14 06:28N 37°57' E 023°35'0 0.0
2017-Sep-14 05:58N 37°57' E 023°35'0 0.0
2017-Sep-14 05:28N 37°57' E 023°35'0 0.0
2017-Sep-14 04:58N 37°57' E 023°35'0 0.1
2017-Sep-14 04:31N 37°57' E 023°35'2 4.1
2017-Sep-14 04:00N 37°55' E 023°35'2 4.8
2017-Sep-14 03:30N 37°53' E 023°33'1 2.3
2017-Sep-14 02:59N 37°53' E 023°32'0 0.1
2017-Sep-14 02:29N 37°53' E 023°32'0 0.0
2017-Sep-14 01:59N 37°53' E 023°32'0 0.0
2017-Sep-14 01:29N 37°53' E 023°32'0 0.0
2017-Sep-14 00:59N 37°53' E 023°32'0 0.0
2017-Sep-14 00:29N 37°53' E 023°32'0 0.0
2017-Sep-13 23:59N 37°53' E 023°32'0 0.1
2017-Sep-13 23:29N 37°53' E 023°32'0 0.1
2017-Sep-13 22:59N 37°53' E 023°32'0 0.0
2017-Sep-13 22:29N 37°53' E 023°32'0 0.2
2017-Sep-13 21:59N 37°53' E 023°32'0 0.2
2017-Sep-13 21:29N 37°53' E 023°32'0 0.2
2017-Sep-13 20:59N 37°53' E 023°32'0 0.0
2017-Sep-13 20:29N 37°53' E 023°32'0 0.1
2017-Sep-13 19:59N 37°53' E 023°32'0 0.0
2017-Sep-13 19:29N 37°53' E 023°32'0 0.3
2017-Sep-13 18:59N 37°53' E 023°32'0 0.3
2017-Sep-13 18:29N 37°53' E 023°32'0 0.1
2017-Sep-13 17:59N 37°53' E 023°32'0 0.1
2017-Sep-13 17:29N 37°53' E 023°32'0 0.0
2017-Sep-13 16:59N 37°53' E 023°32'0 0.0
2017-Sep-13 16:29N 37°53' E 023°32'0 0.0
2017-Sep-13 15:59N 37°53' E 023°32'0 0.1
2017-Sep-13 15:29N 37°53' E 023°32'0 0.1
2017-Sep-13 14:59N 37°53' E 023°32'0 0.0
2017-Sep-13 14:29N 37°53' E 023°32'0 0.0
2017-Sep-13 13:59N 37°53' E 023°32'0 0.0
2017-Sep-13 13:29N 37°53' E 023°32'0 0.0
2017-Sep-13 12:59N 37°53' E 023°32'0 0.0
2017-Sep-13 12:29N 37°53' E 023°32'0 0.0
2017-Sep-13 11:59N 37°53' E 023°32'0 0.0
2017-Sep-13 11:29N 37°53' E 023°32'0 0.0
2017-Sep-13 10:59N 37°53' E 023°32'0 0.0
2017-Sep-13 10:29N 37°53' E 023°32'0 0.0
2017-Sep-13 09:59N 37°53' E 023°32'0 0.0
2017-Sep-13 09:29N 37°53' E 023°32'0 0.0
2017-Sep-13 08:59N 37°53' E 023°32'0 0.0
2017-Sep-13 08:29N 37°53' E 023°32'0 0.0
2017-Sep-13 07:59N 37°53' E 023°32'0 0.3
2017-Sep-13 07:30N 37°53' E 023°32'2 4.3
2017-Sep-13 07:01N 37°52' E 023°34'4 8.0
2017-Sep-13 06:31N 37°50' E 023°39'510.8
2017-Sep-13 06:01N 37°46' E 023°42'5 9.9
2017-Sep-13 05:29N 37°41' E 023°45'5 9.4
2017-Sep-13 05:00N 37°37' E 023°47'325 8.8
2017-Sep-11 16:02N 35°47' E 030°09'1 9.9
2017-Sep-11 15:57N 35°47' E 030°10'5 9.8
2017-Sep-11 15:30N 35°47' E 030°16'5 9.8
2017-Sep-11 14:58N 35°47' E 030°22'510.0
2017-Sep-11 14:30N 35°47' E 030°28'510.0
2017-Sep-11 14:00N 35°47' E 030°34'510.1
2017-Sep-11 13:31N 35°47' E 030°40'510.2
2017-Sep-11 13:01N 35°47' E 030°46'510.5
2017-Sep-11 12:31N 35°47' E 030°53'510.8
2017-Sep-11 12:01N 35°48' E 030°60'611.0
2017-Sep-11 11:30N 35°47' E 031°07'611.2
2017-Sep-11 11:00N 35°47' E 031°13'510.8
2017-Sep-11 10:31N 35°47' E 031°20'510.7
2017-Sep-11 10:00N 35°47' E 031°27'511.0
2017-Sep-11 09:31N 35°47' E 031°33'611.0
2017-Sep-11 09:01N 35°48' E 031°40'510.9
2017-Sep-11 08:31N 35°49' E 031°47'511.0
2017-Sep-11 08:01N 35°49' E 031°53'611.0
2017-Sep-11 07:31N 35°50' E 032°00'611.2
2017-Sep-11 07:01N 35°50' E 032°07'611.3
2017-Sep-11 06:31N 35°52' E 032°14'611.3
2017-Sep-11 06:01N 35°53' E 032°21'714.9
2017-Sep-11 05:30N 35°53' E 032°30'815.2
2017-Sep-11 05:00N 35°53' E 032°39'611.6
2017-Sep-11 04:30N 35°54' E 032°46'  
Track history (hours):
 
Tides and Currents Weather Stations Pressure Air Temp Water Temp Dewpoint Dewpoint Depression Visibility Wind Speed Wind Dir Waves Ship Positions

New Jersey Trader

Last reported at 2017-Sep-21 03:44 UTC. Time now 2017-Sep-23 07:43 UTC.
Position N 32°04' E 033°59'.

Length 212 m; draft 9.5 m.

Type: Ship. MMSI: 256976000.

Date/timePositionNaut miles runAvg speedWind from/ knotsBaromVisibWave heightAir tempDewpointWater temp
2017-Sep-21 03:44N 32°04' E 033°59'210.0
2017-Sep-21 03:29N 32°05' E 033°57'4 9.0
2017-Sep-21 03:00N 32°09' E 033°54'2410.5
2017-Sep-21 00:45N 32°32' E 034°01'410.4
2017-Sep-21 00:19N 32°36' E 034°02'410.5
2017-Sep-20 23:59N 32°39' E 034°03'510.5
2017-Sep-20 23:30N 32°44' E 034°04'510.4
2017-Sep-20 22:59N 32°49' E 034°06'710.2
2017-Sep-20 22:16N 32°56' E 034°08'410.0
2017-Sep-20 21:55N 32°60' E 034°09'510.0
2017-Sep-20 21:25N 33°05' E 034°11'5 9.7
2017-Sep-20 20:55N 33°09' E 034°12'4 9.5
2017-Sep-20 20:30N 33°13' E 034°13'5 9.6
2017-Sep-20 19:59N 33°18' E 034°15'  
2017-Sep-17 15:07N 37°22' E 025°55'112.2
2017-Sep-17 15:01N 37°23' E 025°54'612.0
2017-Sep-17 14:30N 37°29' E 025°51'612.2
2017-Sep-17 14:00N 37°35' E 025°49'612.2
2017-Sep-17 13:31N 37°41' E 025°49'54 1.1
2017-Sep-15 12:21N 38°04' E 024°47'23 9.0
2017-Sep-15 09:50N 37°49' E 024°26'7 9.9
2017-Sep-15 09:05N 37°44' E 024°19'110.1
2017-Sep-15 08:59N 37°43' E 024°18'912.0
2017-Sep-15 08:14N 37°37' E 024°10'612.0
2017-Sep-15 07:47N 37°36' E 024°03'3 9.8
2017-Sep-15 07:30N 37°36' E 023°60'5 9.6
2017-Sep-15 07:01N 37°36' E 023°54'5 9.3
2017-Sep-15 06:31N 37°36' E 023°48'5 9.0
2017-Sep-15 06:00N 37°39' E 023°43'5 9.7
2017-Sep-15 05:30N 37°43' E 023°40'510.7
2017-Sep-15 05:01N 37°48' E 023°38'510.3
2017-Sep-15 04:30N 37°53' E 023°37'4 8.1
2017-Sep-15 04:00N 37°57' E 023°36'1 1.4
2017-Sep-15 03:28N 37°57' E 023°35'0 0.0
2017-Sep-15 02:58N 37°57' E 023°35'0 0.0
2017-Sep-15 02:28N 37°57' E 023°35'0 0.0
2017-Sep-15 01:58N 37°57' E 023°35'0 0.0
2017-Sep-15 01:28N 37°57' E 023°35'0 0.0
2017-Sep-15 00:58N 37°57' E 023°35'0 0.0
2017-Sep-15 00:28N 37°57' E 023°35'0 0.0
2017-Sep-14 23:58N 37°57' E 023°35'0 0.0
2017-Sep-14 23:28N 37°57' E 023°35'0 0.0
2017-Sep-14 22:58N 37°57' E 023°35'0 0.0
2017-Sep-14 22:28N 37°57' E 023°35'0 0.0
2017-Sep-14 21:58N 37°57' E 023°35'0 0.0
2017-Sep-14 21:28N 37°57' E 023°35'0 0.0
2017-Sep-14 20:58N 37°57' E 023°35'0 0.0
2017-Sep-14 20:28N 37°57' E 023°35'0 0.0
2017-Sep-14 19:58N 37°57' E 023°35'0 0.0
2017-Sep-14 19:28N 37°57' E 023°35'0 0.0
2017-Sep-14 18:58N 37°57' E 023°35'0 0.0
2017-Sep-14 18:28N 37°57' E 023°35'0 0.0
2017-Sep-14 17:58N 37°57' E 023°35'0 0.0
2017-Sep-14 17:28N 37°57' E 023°35'0 0.0
2017-Sep-14 16:58N 37°57' E 023°35'0 0.0
2017-Sep-14 16:28N 37°57' E 023°35'0 0.0
2017-Sep-14 15:58N 37°57' E 023°35'0 0.0
2017-Sep-14 15:28N 37°57' E 023°35'0 0.0
2017-Sep-14 14:58N 37°57' E 023°35'0 0.0
2017-Sep-14 14:28N 37°57' E 023°35'0 0.0
2017-Sep-14 13:58N 37°57' E 023°35'0 0.0
2017-Sep-14 13:28N 37°57' E 023°35'0 0.0
2017-Sep-14 12:58N 37°57' E 023°35'0 0.0
2017-Sep-14 12:28N 37°57' E 023°35'0 0.0
2017-Sep-14 11:58N 37°57' E 023°35'0 0.0
2017-Sep-14 11:28N 37°57' E 023°35'0 0.0
2017-Sep-14 10:58N 37°57' E 023°35'0 0.0
2017-Sep-14 10:28N 37°57' E 023°35'0 0.0
2017-Sep-14 09:58N 37°57' E 023°35'0 0.0
2017-Sep-14 09:28N 37°57' E 023°35'0 0.0
2017-Sep-14 08:58N 37°57' E 023°35'0 0.0
2017-Sep-14 08:28N 37°57' E 023°35'0 0.0
2017-Sep-14 07:52N 37°57' E 023°35'0 0.0
2017-Sep-14 07:28N 37°57' E 023°35'0 0.0
2017-Sep-14 06:58N 37°57' E 023°35'0 0.0
2017-Sep-14 06:28N 37°57' E 023°35'0 0.0
2017-Sep-14 05:58N 37°57' E 023°35'0 0.0
2017-Sep-14 05:28N 37°57' E 023°35'0 0.0
2017-Sep-14 04:58N 37°57' E 023°35'0 0.1
2017-Sep-14 04:31N 37°57' E 023°35'2 4.1
2017-Sep-14 04:00N 37°55' E 023°35'2 4.8
2017-Sep-14 03:30N 37°53' E 023°33'1 2.3
2017-Sep-14 02:59N 37°53' E 023°32'0 0.1
2017-Sep-14 02:29N 37°53' E 023°32'0 0.0
2017-Sep-14 01:59N 37°53' E 023°32'0 0.0
2017-Sep-14 01:29N 37°53' E 023°32'0 0.0
2017-Sep-14 00:59N 37°53' E 023°32'0 0.0
2017-Sep-14 00:29N 37°53' E 023°32'0 0.0
2017-Sep-13 23:59N 37°53' E 023°32'0 0.1
2017-Sep-13 23:29N 37°53' E 023°32'0 0.1
2017-Sep-13 22:59N 37°53' E 023°32'0 0.0
2017-Sep-13 22:29N 37°53' E 023°32'0 0.2
2017-Sep-13 21:59N 37°53' E 023°32'0 0.2
2017-Sep-13 21:29N 37°53' E 023°32'0 0.2
2017-Sep-13 20:59N 37°53' E 023°32'0 0.0
2017-Sep-13 20:29N 37°53' E 023°32'0 0.1
2017-Sep-13 19:59N 37°53' E 023°32'0 0.0
2017-Sep-13 19:29N 37°53' E 023°32'0 0.3
2017-Sep-13 18:59N 37°53' E 023°32'0 0.3
2017-Sep-13 18:29N 37°53' E 023°32'0 0.1
2017-Sep-13 17:59N 37°53' E 023°32'0 0.1
2017-Sep-13 17:29N 37°53' E 023°32'0 0.0
2017-Sep-13 16:59N 37°53' E 023°32'0 0.0
2017-Sep-13 16:29N 37°53' E 023°32'0 0.0
2017-Sep-13 15:59N 37°53' E 023°32'0 0.1
2017-Sep-13 15:29N 37°53' E 023°32'0 0.1
2017-Sep-13 14:59N 37°53' E 023°32'0 0.0
2017-Sep-13 14:29N 37°53' E 023°32'0 0.0
2017-Sep-13 13:59N 37°53' E 023°32'0 0.0
2017-Sep-13 13:29N 37°53' E 023°32'0 0.0
2017-Sep-13 12:59N 37°53' E 023°32'0 0.0
2017-Sep-13 12:29N 37°53' E 023°32'0 0.0
2017-Sep-13 11:59N 37°53' E 023°32'0 0.0
2017-Sep-13 11:29N 37°53' E 023°32'0 0.0
2017-Sep-13 10:59N 37°53' E 023°32'0 0.0
2017-Sep-13 10:29N 37°53' E 023°32'0 0.0
2017-Sep-13 09:59N 37°53' E 023°32'0 0.0
2017-Sep-13 09:29N 37°53' E 023°32'0 0.0
2017-Sep-13 08:59N 37°53' E 023°32'0 0.0
2017-Sep-13 08:29N 37°53' E 023°32'0 0.0
2017-Sep-13 07:59N 37°53' E 023°32'0 0.3
2017-Sep-13 07:30N 37°53' E 023°32'2 4.3
2017-Sep-13 07:01N 37°52' E 023°34'4 8.0
2017-Sep-13 06:31N 37°50' E 023°39'510.8
2017-Sep-13 06:01N 37°46' E 023°42'5 9.9
2017-Sep-13 05:29N 37°41' E 023°45'5 9.4
2017-Sep-13 05:00N 37°37' E 023°47'325 8.8
2017-Sep-11 16:02N 35°47' E 030°09'1 9.9
2017-Sep-11 15:57N 35°47' E 030°10'5 9.8
2017-Sep-11 15:30N 35°47' E 030°16'5 9.8
2017-Sep-11 14:58N 35°47' E 030°22'510.0
2017-Sep-11 14:30N 35°47' E 030°28'510.0
2017-Sep-11 14:00N 35°47' E 030°34'510.1
2017-Sep-11 13:31N 35°47' E 030°40'510.2
2017-Sep-11 13:01N 35°47' E 030°46'510.5
2017-Sep-11 12:31N 35°47' E 030°53'510.8
2017-Sep-11 12:01N 35°48' E 030°60'611.0
2017-Sep-11 11:30N 35°47' E 031°07'611.2
2017-Sep-11 11:00N 35°47' E 031°13'510.8
2017-Sep-11 10:31N 35°47' E 031°20'510.7
2017-Sep-11 10:00N 35°47' E 031°27'511.0
2017-Sep-11 09:31N 35°47' E 031°33'611.0
2017-Sep-11 09:01N 35°48' E 031°40'510.9
2017-Sep-11 08:31N 35°49' E 031°47'511.0
2017-Sep-11 08:01N 35°49' E 031°53'611.0
2017-Sep-11 07:31N 35°50' E 032°00'611.2
2017-Sep-11 07:01N 35°50' E 032°07'611.3
2017-Sep-11 06:31N 35°52' E 032°14'611.3
2017-Sep-11 06:01N 35°53' E 032°21'714.9
2017-Sep-11 05:30N 35°53' E 032°30'815.2
2017-Sep-11 05:00N 35°53' E 032°39'611.6
2017-Sep-11 04:30N 35°54' E 032°46'  

Dump ship's entire track history